createdAt,value
2018-07-21T00:01:06.934Z,19.50
2018-07-21T00:03:40.362Z,19.50
2018-07-21T00:06:14.341Z,19.40
2018-07-21T00:08:47.076Z,19.30
2018-07-21T00:11:17.885Z,19.40
2018-07-21T00:16:22.222Z,19.40
2018-07-21T00:18:51.122Z,19.40
2018-07-21T00:21:20.026Z,19.50
2018-07-21T00:23:48.957Z,19.60
2018-07-21T00:26:18.805Z,19.60
2018-07-21T00:28:57.509Z,19.70
2018-07-21T00:31:28.377Z,19.70
2018-07-21T00:34:00.577Z,19.60
2018-07-21T00:36:30.445Z,19.50
2018-07-21T00:39:02.654Z,19.50
2018-07-21T00:41:33.565Z,19.50
2018-07-21T00:44:02.481Z,19.50
2018-07-21T00:46:31.317Z,19.50
2018-07-21T00:49:06.305Z,19.60
2018-07-21T00:51:35.265Z,19.60
2018-07-21T00:54:06.090Z,19.60
2018-07-21T00:59:05.445Z,19.70
2018-07-21T01:01:34.301Z,19.70
2018-07-21T01:04:06.591Z,19.70
2018-07-21T01:06:39.041Z,19.80
2018-07-21T01:09:10.665Z,19.80
2018-07-21T01:11:44.721Z,19.80
2018-07-21T01:14:19.445Z,19.90
2018-07-21T01:16:54.893Z,19.90
2018-07-21T01:19:30.857Z,19.90
2018-07-21T01:21:59.681Z,20.00
2018-07-21T01:24:32.989Z,20.00
2018-07-21T01:27:02.890Z,20.00
2018-07-21T01:29:31.764Z,20.00
2018-07-21T01:32:00.582Z,20.00
2018-07-21T01:34:32.805Z,19.90
2018-07-21T01:37:01.610Z,19.90
2018-07-21T01:39:30.377Z,19.90
2018-07-21T01:42:00.321Z,20.00
2018-07-21T01:44:32.537Z,19.90
2018-07-21T01:47:05.233Z,19.90
2018-07-21T01:49:34.109Z,19.90
2018-07-21T01:52:03.913Z,19.90
2018-07-21T01:54:32.949Z,20.00
2018-07-21T01:57:01.806Z,20.00
2018-07-21T01:59:30.721Z,19.90
2018-07-21T02:01:59.603Z,19.90
2018-07-21T02:04:29.565Z,19.90
2018-07-21T02:06:59.449Z,19.80
2018-07-21T02:09:30.337Z,19.70
2018-07-21T02:11:59.209Z,19.60
2018-07-21T02:17:21.733Z,19.40
2018-07-21T02:19:52.701Z,19.40
2018-07-21T02:22:21.581Z,19.40
2018-07-21T02:24:56.623Z,19.30
2018-07-21T02:27:28.853Z,19.30
2018-07-21T02:29:57.723Z,19.30
2018-07-21T02:32:31.431Z,19.30
2018-07-21T02:35:02.257Z,19.30
2018-07-21T02:37:31.169Z,19.30
2018-07-21T02:40:07.623Z,19.20
2018-07-21T02:42:36.613Z,19.10
2018-07-21T02:45:09.885Z,19.10
2018-07-21T02:47:38.720Z,19.10
2018-07-21T02:50:07.685Z,19.20
2018-07-21T02:52:39.937Z,19.20
2018-07-21T02:57:39.449Z,19.30
2018-07-21T03:00:08.332Z,19.20
2018-07-21T03:02:37.169Z,19.20
2018-07-21T03:05:07.017Z,19.20
2018-07-21T03:07:36.877Z,19.20
2018-07-21T03:10:05.967Z,19.20
2018-07-21T03:12:44.899Z,19.20
2018-07-21T03:15:13.685Z,19.20
2018-07-21T03:17:43.529Z,19.20
2018-07-21T03:20:14.594Z,19.20
2018-07-21T03:22:43.452Z,19.20
2018-07-21T03:25:20.441Z,19.10
2018-07-21T03:27:49.308Z,19.10
2018-07-21T03:30:31.529Z,19.10
2018-07-21T03:33:05.808Z,19.20
2018-07-21T03:35:34.692Z,19.20
2018-07-21T03:38:03.565Z,19.20
2018-07-21T03:43:03.972Z,19.30
2018-07-21T03:45:32.820Z,19.30
2018-07-21T03:48:05.262Z,19.30
2018-07-21T03:50:34.213Z,19.30
2018-07-21T03:53:04.657Z,19.30
2018-07-21T03:55:39.292Z,19.20
2018-07-21T03:58:08.188Z,19.10
2018-07-21T04:00:40.473Z,19.10
2018-07-21T04:03:14.808Z,19.00
2018-07-21T04:05:43.620Z,19.00
2018-07-21T04:08:12.536Z,18.90
2018-07-21T04:10:41.436Z,18.90
2018-07-21T04:13:11.311Z,18.90
2018-07-21T04:15:43.177Z,18.90
2018-07-21T04:18:12.965Z,18.90
2018-07-21T04:20:41.849Z,19.00
2018-07-21T04:23:17.641Z,18.90
2018-07-21T04:25:46.561Z,18.90
2018-07-21T04:28:17.476Z,18.90
2018-07-21T04:30:51.596Z,18.90
2018-07-21T04:33:20.460Z,18.90
2018-07-21T04:35:51.336Z,18.90
2018-07-21T04:38:26.125Z,18.90
2018-07-21T04:40:55.049Z,18.90
2018-07-21T04:43:26.965Z,18.90
2018-07-21T04:46:01.719Z,18.90
2018-07-21T04:48:31.601Z,19.00
2018-07-21T04:51:02.397Z,19.00
2018-07-21T04:53:43.241Z,19.00
2018-07-21T04:56:14.030Z,19.10
2018-07-21T04:58:42.927Z,19.10
2018-07-21T05:01:11.808Z,19.10
2018-07-21T05:03:42.612Z,19.10
2018-07-21T05:06:11.419Z,19.10
2018-07-21T05:08:40.680Z,19.10
2018-07-21T05:11:16.475Z,19.20
2018-07-21T05:13:45.221Z,19.10
2018-07-21T05:16:26.052Z,19.10
2018-07-21T05:18:54.902Z,19.10
2018-07-21T05:21:23.688Z,19.10
2018-07-21T05:23:54.584Z,18.90
2018-07-21T05:26:31.876Z,18.60
2018-07-21T05:29:04.032Z,18.40
2018-07-21T05:31:37.935Z,18.30
2018-07-21T05:34:08.716Z,18.20
2018-07-21T05:36:42.652Z,18.10
2018-07-21T05:39:12.512Z,18.10
2018-07-21T05:41:42.468Z,18.10
2018-07-21T05:46:46.576Z,18.00
2018-07-21T05:49:19.191Z,18.00
2018-07-21T05:51:48.108Z,18.10
2018-07-21T05:54:18.140Z,18.20
2018-07-21T05:56:48.033Z,18.20
2018-07-21T05:59:23.357Z,18.30
2018-07-21T06:02:14.781Z,18.30
2018-07-21T06:04:54.740Z,18.40
2018-07-21T06:07:28.221Z,18.50
2018-07-21T06:10:02.649Z,18.50
2018-07-21T06:12:31.557Z,18.50
2018-07-21T06:15:11.492Z,18.60
2018-07-21T06:17:40.356Z,18.60
2018-07-21T06:20:09.141Z,18.60
2018-07-21T06:22:38.021Z,18.70
2018-07-21T06:25:08.474Z,18.70
2018-07-21T06:27:37.257Z,18.80
2018-07-21T06:30:09.612Z,18.80
2018-07-21T06:32:43.461Z,18.80
2018-07-21T06:35:13.173Z,18.80
2018-07-21T06:37:42.021Z,18.80
2018-07-21T06:40:10.813Z,18.80
2018-07-21T06:42:41.780Z,18.80
2018-07-21T06:45:11.617Z,18.60
2018-07-21T06:47:42.436Z,18.50
2018-07-21T06:50:11.333Z,18.20
2018-07-21T06:52:56.090Z,18.00
2018-07-21T06:55:26.009Z,17.90
2018-07-21T06:57:56.804Z,17.80
2018-07-21T07:00:33.700Z,17.70
2018-07-21T07:03:07.096Z,17.80
2018-07-21T07:05:42.133Z,17.80
2018-07-21T07:08:18.880Z,17.80
2018-07-21T07:10:53.220Z,17.70
2018-07-21T07:13:25.052Z,17.60
2018-07-21T07:15:59.002Z,17.60
2018-07-21T07:18:27.844Z,17.60
2018-07-21T07:21:18.874Z,17.50
2018-07-21T07:23:48.728Z,17.50
2018-07-21T07:26:18.708Z,17.50
2018-07-21T07:28:48.540Z,17.50
2018-07-21T07:31:18.492Z,17.50
2018-07-21T07:33:47.488Z,17.50
2018-07-21T07:36:18.308Z,17.50
2018-07-21T07:38:48.156Z,17.50
2018-07-21T07:43:56.140Z,17.50
2018-07-21T07:46:29.872Z,17.50
2018-07-21T07:49:00.689Z,17.50
2018-07-21T07:51:30.427Z,17.50
2018-07-21T07:56:36.976Z,17.50
2018-07-21T07:59:05.776Z,17.60
2018-07-21T08:01:41.316Z,17.60
2018-07-21T08:04:22.340Z,17.70
2018-07-21T08:06:52.120Z,17.80
2018-07-21T08:09:24.888Z,17.90
2018-07-21T08:15:03.092Z,18.00
2018-07-21T08:17:32.968Z,18.20
2018-07-21T08:20:08.348Z,18.30
2018-07-21T08:22:43.176Z,18.30
2018-07-21T08:25:19.792Z,18.30
2018-07-21T08:27:51.331Z,18.40
2018-07-21T08:30:26.213Z,18.30
2018-07-21T08:33:00.189Z,18.40
2018-07-21T08:35:34.880Z,18.40
2018-07-21T08:38:12.119Z,18.40
2018-07-21T08:40:41.960Z,18.40
2018-07-21T08:43:14.380Z,18.40
2018-07-21T08:45:50.128Z,18.50
2018-07-21T08:48:19.948Z,18.50
2018-07-21T08:51:03.011Z,18.50
2018-07-21T08:53:32.756Z,18.50
2018-07-21T08:56:07.228Z,18.50
2018-07-21T08:58:42.236Z,18.50
2018-07-21T09:03:41.457Z,18.50
2018-07-21T09:08:43.337Z,18.60
2018-07-21T09:11:16.836Z,18.60
2018-07-21T09:13:47.752Z,18.50
2018-07-21T09:16:18.596Z,18.50
2018-07-21T09:19:03.680Z,18.60
2018-07-21T09:21:32.508Z,18.50
2018-07-21T09:26:58.996Z,18.60
2018-07-21T09:29:28.848Z,18.60
2018-07-21T09:32:08.244Z,18.50
2018-07-21T09:34:42.820Z,18.60
2018-07-21T09:37:19.980Z,18.70
2018-07-21T09:42:43.376Z,18.70
2018-07-21T09:45:12.092Z,18.70
2018-07-21T09:47:40.868Z,18.70
2018-07-21T09:50:32.584Z,18.70
2018-07-21T09:53:05.916Z,18.50
2018-07-21T09:55:34.738Z,18.40
2018-07-21T09:58:03.556Z,18.40
2018-07-21T10:00:37.616Z,18.40
2018-07-21T10:03:11.868Z,18.30
2018-07-21T10:05:41.596Z,18.30
2018-07-21T10:08:10.384Z,18.20
2018-07-21T10:10:40.143Z,18.30
2018-07-21T10:13:12.480Z,18.30
2018-07-21T10:15:42.616Z,18.30
2018-07-21T10:18:13.464Z,18.30
2018-07-21T10:20:42.488Z,18.30
2018-07-21T10:23:11.528Z,18.30
2018-07-21T10:25:45.840Z,18.30
2018-07-21T10:28:20.134Z,18.30
2018-07-21T10:30:48.885Z,18.30
2018-07-21T10:33:18.742Z,18.30
2018-07-21T10:35:49.472Z,18.40
2018-07-21T10:38:19.408Z,18.40
2018-07-21T10:40:48.876Z,18.40
2018-07-21T10:43:19.244Z,18.40
2018-07-21T10:45:49.583Z,18.40
2018-07-21T10:48:19.428Z,18.40
2018-07-21T10:51:00.437Z,18.40
2018-07-21T10:53:29.320Z,18.50
2018-07-21T10:56:07.656Z,18.40
2018-07-21T11:01:13.337Z,18.40
2018-07-21T11:03:42.503Z,18.50
2018-07-21T11:06:13.272Z,18.50
2018-07-21T11:08:42.113Z,18.50
2018-07-21T11:11:12.480Z,18.60
2018-07-21T11:13:42.152Z,18.70
2018-07-21T11:16:11.049Z,18.70
2018-07-21T11:18:41.376Z,18.70
2018-07-21T11:21:10.300Z,18.60
2018-07-21T11:23:41.056Z,18.60
2018-07-21T11:26:14.001Z,18.50
2018-07-21T11:28:43.793Z,18.40
2018-07-21T11:31:14.740Z,18.40
2018-07-21T11:33:43.484Z,18.30
2018-07-21T11:36:13.554Z,18.30
2018-07-21T11:38:42.024Z,18.30
2018-07-21T11:41:11.383Z,18.30
2018-07-21T11:43:45.876Z,18.40
2018-07-21T11:46:14.700Z,18.40
2018-07-21T11:48:43.568Z,18.40
2018-07-21T11:51:14.324Z,18.40
2018-07-21T11:53:43.224Z,18.50
2018-07-21T11:56:13.328Z,18.50
2018-07-21T11:58:42.136Z,18.50
2018-07-21T12:01:16.968Z,18.50
2018-07-21T12:03:46.868Z,18.50
2018-07-21T12:08:44.544Z,18.50
2018-07-21T12:11:25.084Z,18.60
2018-07-21T12:13:53.885Z,18.60
2018-07-21T12:16:22.732Z,18.60
2018-07-21T12:18:59.511Z,18.50
2018-07-21T12:21:30.900Z,18.40
2018-07-21T12:23:59.903Z,18.40
2018-07-21T12:26:29.745Z,18.40
2018-07-21T12:28:59.499Z,18.40
2018-07-21T12:31:41.328Z,18.40
2018-07-21T12:34:12.236Z,18.40
2018-07-21T12:36:42.515Z,18.30
2018-07-21T12:39:30.924Z,18.30
2018-07-21T12:41:59.883Z,18.20
2018-07-21T12:44:29.640Z,18.10
2018-07-21T12:47:14.718Z,18.20
2018-07-21T12:50:02.826Z,18.30
2018-07-21T12:52:31.724Z,18.50
2018-07-21T12:57:31.020Z,18.90
2018-07-21T12:59:59.832Z,19.00
2018-07-21T13:02:30.573Z,19.00
2018-07-21T13:05:06.892Z,19.00
2018-07-21T13:07:39.360Z,19.20
2018-07-21T13:13:08.236Z,19.00
2018-07-21T13:15:40.864Z,19.00
2018-07-21T13:18:10.652Z,18.90
2018-07-21T13:20:51.684Z,18.90
2018-07-21T13:23:20.555Z,19.20
2018-07-21T13:25:49.655Z,19.20
2018-07-21T13:28:19.236Z,19.20
2018-07-21T13:33:20.257Z,19.50
2018-07-21T13:38:18.563Z,19.80
2018-07-21T13:40:52.339Z,19.80
2018-07-21T13:43:23.147Z,19.90
2018-07-21T13:48:21.923Z,19.80
2018-07-21T13:50:50.703Z,19.60
2018-07-21T13:53:19.487Z,19.40
2018-07-21T13:55:48.288Z,19.40
2018-07-21T13:58:17.179Z,19.30
2018-07-21T14:00:46.943Z,19.40
2018-07-21T14:03:15.763Z,19.50
2018-07-21T14:05:44.572Z,19.50
2018-07-21T14:08:13.351Z,19.40
2018-07-21T14:10:42.119Z,19.40
2018-07-21T14:13:10.915Z,19.40
2018-07-21T14:15:40.727Z,19.50
2018-07-21T14:18:11.575Z,19.50
2018-07-21T14:20:41.484Z,19.30
2018-07-21T14:23:15.183Z,19.20
2018-07-21T14:25:49.763Z,19.20
2018-07-21T14:28:22.503Z,19.20
2018-07-21T14:31:05.452Z,19.20
2018-07-21T14:33:34.307Z,19.40
2018-07-21T14:36:04.210Z,19.30
2018-07-21T14:38:33.055Z,19.30
2018-07-21T14:41:07.471Z,19.30
2018-07-21T14:43:36.358Z,19.40
2018-07-21T14:46:05.099Z,19.50
2018-07-21T14:48:33.904Z,19.50
2018-07-21T14:51:02.674Z,19.60
2018-07-21T14:53:32.487Z,19.50
2018-07-21T14:56:04.371Z,19.30
2018-07-21T14:58:36.211Z,19.20
2018-07-21T15:01:07.091Z,19.20
2018-07-21T15:03:35.963Z,19.20
2018-07-21T15:06:06.795Z,19.30
2018-07-21T15:08:35.583Z,19.30
2018-07-21T15:11:05.382Z,19.40
2018-07-21T15:13:38.285Z,19.60
2018-07-21T15:16:09.076Z,19.80
2018-07-21T15:18:41.175Z,20.00
2018-07-21T15:21:11.928Z,20.10
2018-07-21T15:23:41.775Z,20.40
2018-07-21T15:26:10.572Z,20.90
2018-07-21T15:28:39.279Z,21.10
2018-07-21T15:31:10.126Z,21.10
2018-07-21T15:33:39.988Z,21.20
2018-07-21T15:36:16.847Z,21.40
2018-07-21T15:38:49.419Z,21.50
2018-07-21T15:41:24.163Z,21.50
2018-07-21T15:43:53.231Z,21.60
2018-07-21T15:46:27.306Z,21.70
2018-07-21T15:49:02.048Z,21.60
2018-07-21T15:51:31.779Z,21.80
2018-07-21T15:54:00.751Z,21.70
2018-07-21T15:56:31.511Z,21.40
2018-07-21T15:59:06.028Z,21.10
2018-07-21T16:01:38.261Z,20.90
2018-07-21T16:04:19.351Z,21.10
2018-07-21T16:06:50.095Z,21.30
2018-07-21T16:09:19.908Z,21.40
2018-07-21T16:11:49.647Z,21.40
2018-07-21T16:14:21.560Z,21.50
2018-07-21T16:16:51.415Z,21.70
2018-07-21T16:19:20.191Z,21.70
2018-07-21T16:22:01.460Z,21.70
2018-07-21T16:24:36.060Z,21.70
2018-07-21T16:27:24.824Z,21.60
2018-07-21T16:29:57.688Z,21.40
2018-07-21T16:32:26.569Z,21.00
2018-07-21T16:34:56.314Z,20.80
2018-07-21T16:37:30.211Z,20.70
2018-07-21T16:42:33.619Z,20.50
2018-07-21T16:45:04.523Z,20.40
2018-07-21T16:47:40.783Z,20.30
2018-07-21T16:50:11.567Z,20.10
2018-07-21T16:57:37.467Z,19.80
2018-07-21T17:00:18.543Z,19.80
2018-07-21T17:02:49.351Z,19.70
2018-07-21T17:05:21.051Z,19.60
2018-07-21T17:07:49.859Z,19.50
2018-07-21T17:10:20.776Z,19.40
2018-07-21T17:12:50.627Z,19.40
2018-07-21T17:18:03.923Z,19.30
2018-07-21T17:20:39.431Z,19.30
2018-07-21T17:23:15.175Z,19.30
2018-07-21T17:25:47.415Z,19.30
2018-07-21T17:28:17.187Z,19.40
2018-07-21T17:30:46.051Z,19.40
2018-07-21T17:33:15.835Z,19.50
2018-07-21T17:35:45.057Z,19.50
2018-07-21T17:38:14.903Z,19.40
2018-07-21T17:40:47.911Z,19.40
2018-07-21T17:43:16.718Z,19.40
2018-07-21T17:45:50.306Z,19.20
2018-07-21T17:48:20.219Z,19.20
2018-07-21T17:50:49.083Z,19.10
2018-07-21T17:53:17.918Z,19.10
2018-07-21T17:58:15.215Z,18.90
2018-07-21T18:00:44.062Z,18.80
2018-07-21T18:03:14.822Z,18.70
2018-07-21T18:08:20.578Z,18.60
2018-07-21T18:10:50.318Z,18.50
2018-07-21T18:13:21.094Z,18.50
2018-07-21T18:15:57.958Z,18.50
2018-07-21T18:18:26.654Z,18.40
2018-07-21T18:20:56.437Z,18.40
2018-07-21T18:23:25.206Z,18.40
2018-07-21T18:25:54.882Z,18.30
2018-07-21T18:28:28.606Z,18.30
2018-07-21T18:30:57.366Z,18.30
2018-07-21T18:33:26.173Z,18.30
2018-07-21T18:35:55.914Z,18.30
2018-07-21T18:38:31.082Z,18.30
2018-07-21T18:40:59.915Z,18.20
2018-07-21T18:43:28.698Z,18.20
2018-07-21T18:46:02.923Z,18.20
2018-07-21T18:48:32.766Z,18.10
2018-07-21T18:51:05.974Z,18.00
2018-07-21T18:53:38.714Z,18.00
2018-07-21T18:56:07.678Z,18.00
2018-07-21T18:58:37.535Z,17.90
2018-07-21T19:01:13.162Z,17.90
2018-07-21T19:03:41.926Z,17.90
2018-07-21T19:06:10.742Z,17.90
2018-07-21T19:08:45.874Z,17.80
2018-07-21T19:11:20.154Z,17.70
2018-07-21T19:13:50.043Z,17.70
2018-07-21T19:16:26.322Z,17.70
2018-07-21T19:18:55.406Z,17.60
2018-07-21T19:21:24.337Z,17.60
2018-07-21T19:23:53.375Z,17.60
2018-07-21T19:26:28.109Z,17.60
2018-07-21T19:28:59.243Z,17.60
2018-07-21T19:31:32.191Z,17.60
2018-07-21T19:34:02.095Z,17.50
2018-07-21T19:36:36.950Z,17.50
2018-07-21T19:39:07.102Z,17.50
2018-07-21T19:41:41.806Z,17.50
2018-07-21T19:46:40.807Z,17.50
2018-07-21T19:49:09.983Z,17.50
2018-07-21T19:54:08.327Z,17.50
2018-07-21T19:56:37.539Z,17.50
2018-07-21T19:59:06.647Z,17.50
2018-07-21T20:01:35.943Z,17.50
2018-07-21T20:04:06.762Z,17.50
2018-07-21T20:06:35.510Z,17.50
2018-07-21T20:09:06.527Z,17.50
2018-07-21T20:11:37.300Z,17.50
2018-07-21T20:14:06.315Z,17.50
2018-07-21T20:16:35.142Z,17.50
2018-07-21T20:19:03.932Z,17.50
2018-07-21T20:21:34.790Z,17.50
2018-07-21T20:24:03.621Z,17.40
2018-07-21T20:26:36.062Z,17.40
2018-07-21T20:29:05.950Z,17.50
2018-07-21T20:34:08.823Z,17.50
2018-07-21T20:36:41.359Z,17.50
2018-07-21T20:39:17.407Z,17.50
2018-07-21T20:41:47.183Z,17.50
2018-07-21T20:44:30.778Z,17.50
2018-07-21T20:47:01.534Z,17.50
2018-07-21T20:49:39.866Z,17.40
2018-07-21T20:52:09.803Z,17.40
2018-07-21T20:54:39.613Z,17.40
2018-07-21T20:57:08.489Z,17.40
2018-07-21T20:59:37.351Z,17.40
2018-07-21T21:02:10.028Z,17.30
2018-07-21T21:04:39.923Z,17.30
2018-07-21T21:07:10.743Z,17.30
2018-07-21T21:09:39.587Z,17.30
2018-07-21T21:12:11.506Z,17.30
2018-07-21T21:14:40.382Z,17.30
2018-07-21T21:17:12.907Z,17.20
2018-07-21T21:19:43.782Z,17.20
2018-07-21T21:22:13.050Z,17.10
2018-07-21T21:24:43.070Z,17.10
2018-07-21T21:27:12.055Z,17.10
2018-07-21T21:29:41.217Z,17.00
2018-07-21T21:32:12.098Z,17.00
2018-07-21T21:34:40.946Z,17.00
2018-07-21T21:37:11.750Z,17.00
2018-07-21T21:39:40.566Z,16.90
2018-07-21T21:42:09.566Z,16.90
2018-07-21T21:44:38.314Z,16.90
2018-07-21T21:47:11.215Z,16.90
2018-07-21T21:49:40.019Z,16.90
2018-07-21T21:52:12.858Z,16.90
2018-07-21T21:54:42.686Z,16.90
2018-07-21T21:57:11.590Z,16.90
2018-07-21T21:59:40.475Z,16.90
2018-07-21T22:02:26.634Z,16.90
2018-07-21T22:04:57.537Z,16.90
2018-07-21T22:07:26.406Z,16.90
2018-07-21T22:09:55.290Z,16.90
2018-07-21T22:12:38.866Z,16.90
2018-07-21T22:15:19.198Z,16.80
2018-07-21T22:17:48.166Z,16.80
2018-07-21T22:20:18.115Z,16.80
2018-07-21T22:22:54.454Z,16.80
2018-07-21T22:25:24.498Z,16.70
2018-07-21T22:27:53.346Z,16.70
2018-07-21T22:30:22.274Z,16.70
2018-07-21T22:32:52.050Z,16.70
2018-07-21T22:35:23.891Z,16.70
2018-07-21T22:37:56.127Z,16.70
2018-07-21T22:40:30.893Z,16.70
2018-07-21T22:43:00.722Z,16.70
2018-07-21T22:45:30.547Z,16.70
2018-07-21T22:48:01.476Z,16.70
2018-07-21T22:50:30.374Z,16.80
2018-07-21T22:53:00.278Z,16.80
2018-07-21T22:55:31.118Z,16.80
2018-07-21T22:58:01.042Z,16.70
2018-07-21T23:00:31.098Z,16.70
2018-07-21T23:03:11.098Z,16.60
2018-07-21T23:05:40.015Z,16.60
2018-07-21T23:08:09.930Z,16.60
2018-07-21T23:10:38.783Z,16.60
2018-07-21T23:13:08.607Z,16.60
2018-07-21T23:15:38.454Z,16.60
2018-07-21T23:18:17.557Z,16.60
2018-07-21T23:20:53.358Z,16.60
2018-07-21T23:23:25.710Z,16.60
2018-07-21T23:25:55.678Z,16.60
2018-07-21T23:28:29.274Z,16.50
2018-07-21T23:33:32.594Z,16.50
2018-07-21T23:36:01.454Z,16.50
2018-07-21T23:38:36.302Z,16.50
2018-07-21T23:41:09.690Z,16.50
2018-07-21T23:43:39.505Z,16.50
2018-07-21T23:46:10.359Z,16.50
2018-07-21T23:48:39.296Z,16.50
2018-07-21T23:51:11.537Z,16.50
2018-07-21T23:53:40.534Z,16.50
2018-07-21T23:56:10.458Z,16.50
2018-07-21T23:58:39.330Z,16.50
